createdAt,value
2023-01-04T00:01:44.608Z,30.35
2023-01-04T00:04:12.130Z,28.40
2023-01-04T00:06:39.612Z,29.85
2023-01-04T00:09:06.792Z,30.05
2023-01-04T00:11:36.139Z,31.25
2023-01-04T00:14:03.605Z,34.65
2023-01-04T00:16:31.141Z,34.67
2023-01-04T00:18:58.768Z,32.78
2023-01-04T00:21:28.764Z,39.05
2023-01-04T00:23:58.953Z,45.78
2023-01-04T00:26:36.434Z,44.88
2023-01-04T00:29:06.971Z,42.85
2023-01-04T00:31:40.604Z,39.03
2023-01-04T00:34:16.451Z,53.13
2023-01-04T00:36:44.625Z,62.78
2023-01-04T00:39:15.615Z,53.13
2023-01-04T00:42:00.360Z,58.22
2023-01-04T00:44:28.828Z,60.03
2023-01-04T00:46:56.897Z,62.70
2023-01-04T00:49:26.215Z,61.30
2023-01-04T00:51:53.402Z,58.92
2023-01-04T00:54:21.361Z,74.68
2023-01-04T00:56:51.182Z,61.63
2023-01-04T00:59:25.632Z,60.38
2023-01-04T01:01:54.851Z,58.15
2023-01-04T01:04:24.693Z,62.25
2023-01-04T01:06:52.787Z,62.08
2023-01-04T01:09:23.239Z,62.65
2023-01-04T01:11:56.648Z,58.92
2023-01-04T01:16:57.332Z,64.30
2023-01-04T01:19:28.147Z,66.22
2023-01-04T01:21:57.416Z,62.83
2023-01-04T01:24:25.040Z,63.55
2023-01-04T01:26:53.217Z,62.65
2023-01-04T01:29:20.841Z,61.00
2023-01-04T01:31:48.238Z,60.22
2023-01-04T01:34:23.256Z,58.13
2023-01-04T01:36:50.866Z,60.97
2023-01-04T01:39:18.378Z,60.88
2023-01-04T01:41:45.743Z,55.67
2023-01-04T01:44:44.396Z,54.88
2023-01-04T01:47:25.441Z,56.03
2023-01-04T01:49:54.850Z,49.58
2023-01-04T01:52:32.354Z,47.45
2023-01-04T01:55:02.873Z,47.78
2023-01-04T01:57:34.304Z,48.00
2023-01-04T02:00:06.939Z,50.28
2023-01-04T02:02:34.411Z,44.72
2023-01-04T02:05:03.663Z,47.17
2023-01-04T02:07:33.663Z,43.45
2023-01-04T02:10:01.489Z,45.70
2023-01-04T02:12:29.018Z,44.60
2023-01-04T02:14:56.593Z,42.92
2023-01-04T02:17:54.583Z,42.70
2023-01-04T02:21:00.508Z,42.25
2023-01-04T02:23:50.255Z,42.03
2023-01-04T02:26:26.540Z,44.35
2023-01-04T02:29:16.859Z,51.88
2023-01-04T02:31:59.200Z,44.22
2023-01-04T02:34:58.582Z,43.53
2023-01-04T02:37:49.111Z,47.85
2023-01-04T02:40:21.345Z,48.50
2023-01-04T02:43:34.043Z,47.67
2023-01-04T02:46:14.875Z,47.88
2023-01-04T02:49:00.814Z,49.83
2023-01-04T02:51:33.301Z,47.63
2023-01-04T02:54:19.326Z,53.60
2023-01-04T02:57:09.585Z,45.65
2023-01-04T03:00:14.660Z,47.97
2023-01-04T03:03:30.854Z,47.47
2023-01-04T03:06:16.843Z,43.05
2023-01-04T03:08:57.300Z,42.15
2023-01-04T03:12:02.676Z,44.03
2023-01-04T03:14:36.836Z,44.15
2023-01-04T03:17:12.739Z,43.45
2023-01-04T03:19:52.144Z,45.65
2023-01-04T03:22:56.224Z,41.92
2023-01-04T03:28:46.813Z,40.67
2023-01-04T03:31:43.802Z,45.40
2023-01-04T03:34:30.975Z,44.53
2023-01-04T03:37:22.260Z,47.55
2023-01-04T03:40:22.755Z,46.08
2023-01-04T03:43:12.581Z,46.22
2023-01-04T03:46:05.646Z,46.85
2023-01-04T03:48:49.375Z,43.90
2023-01-04T03:51:28.530Z,46.55
2023-01-04T03:54:26.489Z,39.95
2023-01-04T03:56:54.709Z,43.53
2023-01-04T03:59:23.949Z,43.55
2023-01-04T04:01:51.895Z,40.58
2023-01-04T04:04:39.142Z,40.90
2023-01-04T04:07:24.839Z,47.30
2023-01-04T04:09:53.713Z,48.53
2023-01-04T04:12:21.499Z,44.83
2023-01-04T04:14:48.665Z,41.58
2023-01-04T04:17:16.102Z,45.33
2023-01-04T04:19:43.480Z,41.35
2023-01-04T04:22:11.137Z,45.75
2023-01-04T04:24:39.603Z,40.03
2023-01-04T04:27:07.007Z,42.22
2023-01-04T04:29:34.390Z,33.60
2023-01-04T04:32:01.943Z,33.22
2023-01-04T04:34:29.424Z,33.55
2023-01-04T04:36:57.784Z,37.88
2023-01-04T04:39:25.304Z,31.45
2023-01-04T04:41:52.773Z,33.90
2023-01-04T04:44:21.131Z,37.83
2023-01-04T04:46:49.367Z,39.67
2023-01-04T04:49:18.970Z,34.63
2023-01-04T04:51:47.224Z,33.17
2023-01-04T04:54:21.132Z,32.25
2023-01-04T04:56:49.915Z,35.45
2023-01-04T04:59:17.507Z,30.63
2023-01-04T05:01:51.075Z,28.73
2023-01-04T05:04:19.938Z,38.92
2023-01-04T05:06:50.232Z,38.28
2023-01-04T05:09:17.924Z,34.90
2023-01-04T05:12:04.896Z,42.10
2023-01-04T05:14:32.222Z,42.92
2023-01-04T05:17:00.775Z,41.88
2023-01-04T05:19:28.199Z,37.55
2023-01-04T05:21:55.614Z,37.08
2023-01-04T05:24:25.102Z,37.22
2023-01-04T05:26:52.483Z,41.40
2023-01-04T05:29:38.413Z,38.75
2023-01-04T05:32:11.539Z,42.00
2023-01-04T05:34:39.981Z,36.72
2023-01-04T05:37:07.463Z,36.45
2023-01-04T05:39:34.920Z,38.08
2023-01-04T05:42:20.781Z,38.25
2023-01-04T05:44:48.305Z,39.22
2023-01-04T05:47:15.697Z,42.53
2023-01-04T05:49:43.431Z,43.05
2023-01-04T05:52:11.275Z,43.30
2023-01-04T05:54:38.599Z,41.88
2023-01-04T05:57:06.404Z,40.90
2023-01-04T05:59:39.144Z,41.42
2023-01-04T06:02:26.198Z,38.08
2023-01-04T06:04:58.696Z,40.83
2023-01-04T06:07:28.233Z,44.58
2023-01-04T06:09:55.830Z,40.22
2023-01-04T06:12:23.107Z,40.60
2023-01-04T06:14:50.493Z,44.72
2023-01-04T06:17:18.567Z,65.78
2023-01-04T06:19:45.961Z,71.18
2023-01-04T06:22:13.421Z,66.95
2023-01-04T06:24:40.949Z,75.05
2023-01-04T06:27:09.420Z,70.53
2023-01-04T06:29:36.952Z,70.65
2023-01-04T06:32:04.572Z,70.88
2023-01-04T06:34:32.916Z,70.03
2023-01-04T06:37:00.406Z,69.68
2023-01-04T06:39:28.030Z,69.25
2023-01-04T06:42:05.430Z,80.30
2023-01-04T06:44:34.061Z,90.55
2023-01-04T06:47:01.389Z,112.15
2023-01-04T06:49:28.827Z,81.82
2023-01-04T06:51:56.306Z,72.97
2023-01-04T06:54:23.779Z,52.67
2023-01-04T06:56:51.107Z,49.70
2023-01-04T06:59:18.643Z,60.85
2023-01-04T07:01:46.127Z,64.30
2023-01-04T07:04:17.323Z,72.57
2023-01-04T07:06:46.614Z,73.32
2023-01-04T07:09:13.827Z,72.45
2023-01-04T07:11:41.029Z,75.70
2023-01-04T07:14:09.581Z,77.68
2023-01-04T07:16:38.086Z,77.43
2023-01-04T07:19:05.547Z,76.15
2023-01-04T07:21:32.952Z,73.03
2023-01-04T07:24:01.488Z,76.43
2023-01-04T07:26:35.269Z,71.90
2023-01-04T07:29:17.611Z,74.82
2023-01-04T07:31:50.056Z,68.38
2023-01-04T07:34:19.210Z,69.82
2023-01-04T07:36:47.740Z,66.10
2023-01-04T07:39:16.757Z,66.93
2023-01-04T07:41:45.574Z,71.45
2023-01-04T07:44:13.868Z,67.00
2023-01-04T07:46:41.783Z,64.72
2023-01-04T07:49:17.351Z,64.20
2023-01-04T07:51:50.271Z,66.97
2023-01-04T07:54:19.842Z,69.47
2023-01-04T07:56:55.693Z,67.40
2023-01-04T07:59:23.494Z,67.65
2023-01-04T08:01:51.393Z,65.35
2023-01-04T08:04:28.261Z,71.45
2023-01-04T08:07:06.683Z,65.50
2023-01-04T08:09:34.004Z,68.25
2023-01-04T08:12:03.505Z,62.90
2023-01-04T08:14:30.940Z,65.97
2023-01-04T08:17:00.393Z,64.32
2023-01-04T08:19:27.917Z,64.07
2023-01-04T08:21:55.424Z,62.38
2023-01-04T08:24:22.854Z,56.70
2023-01-04T08:26:56.656Z,60.05
2023-01-04T08:29:31.009Z,58.63
2023-01-04T08:32:01.486Z,59.20
2023-01-04T08:34:30.149Z,55.00
2023-01-04T08:36:57.546Z,55.75
2023-01-04T08:39:25.035Z,53.40
2023-01-04T08:44:41.420Z,48.67
2023-01-04T08:47:08.872Z,47.80
2023-01-04T08:49:37.374Z,44.72
2023-01-04T08:52:04.950Z,43.47
2023-01-04T08:54:33.069Z,43.35
2023-01-04T08:57:02.282Z,39.65
2023-01-04T08:59:30.158Z,39.08
2023-01-04T09:02:04.923Z,35.28
2023-01-04T09:04:33.474Z,27.40
2023-01-04T09:07:00.815Z,29.65
2023-01-04T09:09:30.462Z,24.88
2023-01-04T09:11:57.861Z,24.98
2023-01-04T09:14:25.227Z,23.65
2023-01-04T09:16:52.699Z,27.33
2023-01-04T09:19:22.403Z,24.08
2023-01-04T09:21:50.447Z,25.35
2023-01-04T09:24:18.627Z,21.25
2023-01-04T09:26:47.734Z,22.33
2023-01-04T09:29:16.615Z,24.52
2023-01-04T09:31:44.183Z,20.55
2023-01-04T09:34:15.115Z,19.75
2023-01-04T09:36:44.883Z,18.30
2023-01-04T09:39:21.123Z,19.15
2023-01-04T09:42:04.306Z,17.70
2023-01-04T09:45:21.983Z,18.02
2023-01-04T09:47:41.805Z,18.60
2023-01-04T09:50:24.569Z,16.30
2023-01-04T09:53:17.054Z,17.65
2023-01-04T09:55:49.871Z,14.73
2023-01-04T09:58:29.111Z,15.10
2023-01-04T10:01:03.311Z,16.40
2023-01-04T10:03:39.174Z,17.95
2023-01-04T10:06:10.314Z,13.07
2023-01-04T10:08:37.753Z,14.63
2023-01-04T10:11:25.822Z,13.32
2023-01-04T10:14:05.463Z,14.45
2023-01-04T10:22:57.609Z,14.48
2023-01-04T10:25:34.154Z,15.45
2023-01-04T10:28:07.378Z,18.50
2023-01-04T10:31:00.367Z,16.85
2023-01-04T10:34:21.278Z,17.15
2023-01-04T10:36:51.693Z,14.80
2023-01-04T10:39:32.054Z,14.10
2023-01-04T10:42:22.181Z,17.90
2023-01-04T10:45:16.869Z,13.73
2023-01-04T10:48:02.838Z,17.80
2023-01-04T10:50:48.353Z,13.43
2023-01-04T10:53:26.472Z,13.18
2023-01-04T10:56:25.462Z,13.93
2023-01-04T10:59:17.651Z,13.45
2023-01-04T11:02:23.025Z,13.85
2023-01-04T11:04:56.885Z,10.70
2023-01-04T11:07:39.903Z,12.27
2023-01-04T11:10:18.555Z,10.23
2023-01-04T11:12:48.300Z,10.60
2023-01-04T11:15:16.907Z,11.07
2023-01-04T11:17:47.269Z,13.18
2023-01-04T11:20:14.491Z,11.55
2023-01-04T11:22:57.686Z,12.40
2023-01-04T11:25:40.743Z,10.70
2023-01-04T11:28:21.744Z,9.13
2023-01-04T11:31:03.917Z,8.98
2023-01-04T11:33:32.993Z,9.68
2023-01-04T11:36:02.940Z,7.03
2023-01-04T11:38:30.997Z,9.05
2023-01-04T11:41:07.095Z,8.85
2023-01-04T11:43:37.529Z,7.75
2023-01-04T11:46:23.021Z,7.22
2023-01-04T11:48:51.380Z,9.77
2023-01-04T11:51:27.802Z,8.25
2023-01-04T11:54:01.175Z,8.30
2023-01-04T11:56:31.248Z,8.13
2023-01-04T11:59:20.962Z,8.25
2023-01-04T12:02:10.569Z,7.07
2023-01-04T12:04:38.232Z,6.47
2023-01-04T12:07:25.460Z,5.90
2023-01-04T12:09:54.250Z,9.15
2023-01-04T12:12:21.999Z,7.68
2023-01-04T12:14:51.594Z,5.55
2023-01-04T12:18:12.365Z,6.45
2023-01-04T12:20:39.649Z,4.53
2023-01-04T12:23:07.547Z,4.55
2023-01-04T12:25:51.802Z,5.20
2023-01-04T12:28:40.547Z,4.28
2023-01-04T12:31:27.070Z,5.97
2023-01-04T12:33:59.426Z,4.57
2023-01-04T12:36:39.080Z,7.00
2023-01-04T12:39:16.937Z,5.22
2023-01-04T12:42:00.801Z,6.30
2023-01-04T12:44:52.232Z,3.83
2023-01-04T12:47:40.306Z,5.65
2023-01-04T12:50:12.477Z,7.50
2023-01-04T12:55:37.728Z,6.10
2023-01-04T12:58:57.957Z,3.65
2023-01-04T13:01:27.384Z,4.28
2023-01-04T13:04:04.329Z,6.25
2023-01-04T13:06:37.493Z,6.22
2023-01-04T13:09:24.118Z,4.78
2023-01-04T13:12:05.235Z,7.00
2023-01-04T13:14:47.397Z,5.28
2023-01-04T13:17:20.481Z,8.07
2023-01-04T13:19:49.107Z,6.70
2023-01-04T13:22:30.750Z,7.63
2023-01-04T13:25:02.027Z,6.00
2023-01-04T13:27:30.218Z,7.38
2023-01-04T13:29:59.709Z,6.57
2023-01-04T13:32:59.387Z,6.20
2023-01-04T13:35:24.381Z,8.15
2023-01-04T13:37:52.324Z,4.47
2023-01-04T13:40:31.897Z,8.07
2023-01-04T13:43:20.695Z,5.13
2023-01-04T13:46:20.058Z,5.95
2023-01-04T13:48:52.664Z,8.57
2023-01-04T13:51:37.133Z,6.53
2023-01-04T13:54:20.080Z,6.05
2023-01-04T13:56:55.024Z,7.88
2023-01-04T13:59:23.393Z,8.07
2023-01-04T14:01:51.580Z,8.48
2023-01-04T14:04:30.940Z,9.00
2023-01-04T14:07:04.515Z,9.38
2023-01-04T14:12:26.865Z,9.38
2023-01-04T14:15:00.103Z,9.63
2023-01-04T14:17:43.043Z,13.85
2023-01-04T14:20:14.521Z,14.98
2023-01-04T14:22:47.983Z,12.82
2023-01-04T14:28:30.548Z,15.82
2023-01-04T14:31:10.203Z,14.00
2023-01-04T14:33:43.648Z,16.20
2023-01-04T14:36:26.837Z,15.25
2023-01-04T14:39:09.570Z,16.95
2023-01-04T14:41:40.047Z,17.13
2023-01-04T14:44:21.124Z,13.35
2023-01-04T14:46:53.982Z,14.45
2023-01-04T14:49:28.752Z,18.55
2023-01-04T14:52:10.164Z,14.85
2023-01-04T14:54:39.952Z,18.25
2023-01-04T14:57:10.235Z,16.67
2023-01-04T14:59:37.866Z,16.25
2023-01-04T15:02:05.044Z,15.63
2023-01-04T15:04:32.733Z,14.80
2023-01-04T15:07:01.335Z,14.38
2023-01-04T15:09:36.458Z,16.15
2023-01-04T15:12:03.707Z,15.18
2023-01-04T15:14:31.282Z,16.25
2023-01-04T15:16:58.731Z,17.88
2023-01-04T15:19:38.350Z,16.05
2023-01-04T15:22:05.868Z,17.92
2023-01-04T15:24:35.390Z,18.00
2023-01-04T15:27:02.818Z,18.13
2023-01-04T15:29:31.307Z,17.98
2023-01-04T15:31:58.774Z,19.45
2023-01-04T15:34:32.364Z,18.73
2023-01-04T15:39:33.317Z,20.42
2023-01-04T15:42:20.550Z,19.42
2023-01-04T15:44:47.797Z,20.13
2023-01-04T15:47:15.303Z,16.60
2023-01-04T15:49:43.798Z,18.25
2023-01-04T15:52:11.207Z,17.23
2023-01-04T15:54:38.749Z,15.05
2023-01-04T15:57:06.455Z,17.50
2023-01-04T15:59:33.673Z,13.45
2023-01-04T16:02:01.825Z,16.17
2023-01-04T16:04:29.788Z,15.63
2023-01-04T16:06:56.887Z,13.75
2023-01-04T16:09:24.930Z,16.38
2023-01-04T16:12:10.610Z,17.90
2023-01-04T16:14:37.755Z,17.95
2023-01-04T16:17:05.235Z,18.08
2023-01-04T16:19:34.559Z,18.50
2023-01-04T16:22:01.691Z,17.25
2023-01-04T16:25:08.576Z,14.38
2023-01-04T16:27:17.493Z,14.07
2023-01-04T16:29:46.034Z,18.10
2023-01-04T16:32:13.489Z,13.93
2023-01-04T16:34:41.192Z,16.27
2023-01-04T16:37:08.411Z,13.52
2023-01-04T16:42:23.489Z,15.32
2023-01-04T16:44:50.941Z,15.77
2023-01-04T16:47:18.358Z,12.13
2023-01-04T16:49:45.907Z,14.70
2023-01-04T16:52:14.336Z,12.25
2023-01-04T16:54:41.849Z,13.48
2023-01-04T16:57:09.247Z,13.82
2023-01-04T16:59:36.796Z,14.55
2023-01-04T17:02:03.959Z,12.75
2023-01-04T17:04:32.405Z,13.23
2023-01-04T17:06:59.722Z,15.10
2023-01-04T17:09:27.182Z,13.77
2023-01-04T17:15:00.854Z,14.13
2023-01-04T17:17:35.263Z,13.10
2023-01-04T17:20:05.069Z,14.27
2023-01-04T17:22:34.931Z,15.13
2023-01-04T17:25:03.389Z,15.93
2023-01-04T17:27:30.654Z,15.65
2023-01-04T17:29:58.631Z,13.23
2023-01-04T17:32:27.031Z,15.20
2023-01-04T17:34:54.914Z,15.10
2023-01-04T17:37:22.544Z,14.45
2023-01-04T17:39:50.449Z,17.92
2023-01-04T17:42:22.950Z,16.13
2023-01-04T17:44:56.512Z,18.10
2023-01-04T17:47:26.038Z,16.73
2023-01-04T17:49:56.008Z,15.90
2023-01-04T17:52:30.587Z,17.30
2023-01-04T17:54:58.746Z,15.02
2023-01-04T17:57:27.162Z,16.38
2023-01-04T17:59:55.393Z,14.25
2023-01-04T18:02:22.698Z,15.48
2023-01-04T18:04:50.574Z,15.25
2023-01-04T18:07:19.415Z,15.18
2023-01-04T18:09:48.272Z,14.93
2023-01-04T18:12:17.645Z,14.35
2023-01-04T18:14:47.814Z,14.90
2023-01-04T18:17:17.290Z,15.68
2023-01-04T18:19:46.683Z,17.63
2023-01-04T18:22:14.544Z,16.20
2023-01-04T18:24:49.469Z,14.73
2023-01-04T18:27:23.606Z,16.45
2023-01-04T18:29:54.249Z,13.40
2023-01-04T18:32:25.713Z,16.42
2023-01-04T18:34:53.872Z,14.55
2023-01-04T18:37:22.318Z,15.30
2023-01-04T18:39:51.162Z,19.92
2023-01-04T18:42:19.575Z,14.77
2023-01-04T18:44:49.349Z,16.52
2023-01-04T18:47:21.905Z,12.82
2023-01-04T18:49:50.777Z,13.55
2023-01-04T18:52:22.700Z,15.25
2023-01-04T18:54:55.571Z,13.52
2023-01-04T18:57:25.016Z,11.23
2023-01-04T18:59:54.283Z,11.27
2023-01-04T19:02:23.867Z,11.63
2023-01-04T19:04:53.940Z,13.35
2023-01-04T19:07:22.201Z,13.15
2023-01-04T19:09:52.238Z,13.60
2023-01-04T19:12:21.602Z,14.60
2023-01-04T19:14:54.138Z,12.63
2023-01-04T19:17:25.280Z,11.83
2023-01-04T19:19:53.401Z,14.38
2023-01-04T19:22:24.720Z,14.68
2023-01-04T19:24:53.846Z,13.63
2023-01-04T19:27:22.637Z,12.85
2023-01-04T19:29:54.380Z,15.57
2023-01-04T19:32:26.176Z,13.70
2023-01-04T19:34:57.387Z,13.68
2023-01-04T19:37:25.357Z,13.90
2023-01-04T19:39:59.354Z,14.57
2023-01-04T19:42:27.928Z,13.88
2023-01-04T19:44:55.819Z,13.68
2023-01-04T19:47:25.076Z,13.60
2023-01-04T19:49:56.022Z,12.52
2023-01-04T19:52:23.771Z,12.05
2023-01-04T19:54:51.819Z,10.07
2023-01-04T19:57:19.639Z,13.15
2023-01-04T19:59:47.927Z,11.98
2023-01-04T20:02:18.223Z,11.35
2023-01-04T20:04:47.844Z,12.18
2023-01-04T20:07:17.283Z,12.73
2023-01-04T20:09:45.726Z,15.23
2023-01-04T20:12:14.362Z,10.25
2023-01-04T20:14:43.463Z,14.27
2023-01-04T20:17:12.439Z,12.73
2023-01-04T20:19:40.138Z,13.57
2023-01-04T20:22:12.394Z,12.05
2023-01-04T20:24:40.589Z,13.82
2023-01-04T20:27:10.784Z,9.40
2023-01-04T20:29:39.386Z,12.20
2023-01-04T20:32:07.496Z,12.85
2023-01-04T20:34:36.337Z,9.77
2023-01-04T20:37:09.993Z,11.38
2023-01-04T20:42:25.257Z,11.10
2023-01-04T20:44:55.332Z,9.73
2023-01-04T20:47:23.444Z,10.27
2023-01-04T20:49:51.308Z,7.78
2023-01-04T20:52:18.974Z,9.20
2023-01-04T20:54:51.172Z,8.32
2023-01-04T20:57:19.380Z,8.80
2023-01-04T20:59:47.153Z,6.93
2023-01-04T21:02:15.244Z,6.72
2023-01-04T21:04:46.511Z,7.15
2023-01-04T21:07:13.996Z,6.38
2023-01-04T21:09:41.821Z,4.80
2023-01-04T21:12:11.047Z,3.78
2023-01-04T21:14:38.879Z,3.95
2023-01-04T21:17:06.687Z,8.57
2023-01-04T21:19:49.891Z,6.97
2023-01-04T21:22:22.660Z,3.20
2023-01-04T21:24:50.807Z,3.28
2023-01-04T21:27:18.326Z,5.13
2023-01-04T21:29:46.187Z,4.47
2023-01-04T21:32:13.745Z,6.70
2023-01-04T21:34:41.376Z,2.47
2023-01-04T21:37:08.745Z,2.38
2023-01-04T21:39:36.715Z,1.10
2023-01-04T21:42:06.177Z,1.45
2023-01-04T21:44:33.940Z,1.48
2023-01-04T21:47:01.372Z,0.95
2023-01-04T21:49:29.141Z,0.98
2023-01-04T21:51:56.753Z,0.85
2023-01-04T21:54:24.521Z,1.23
2023-01-04T21:56:52.102Z,2.00
2023-01-04T21:59:19.470Z,1.35
2023-01-04T22:01:47.072Z,2.05
2023-01-04T22:04:14.502Z,1.35
2023-01-04T22:06:42.407Z,1.35
2023-01-04T22:09:10.764Z,1.35
2023-01-04T22:11:38.348Z,2.75
2023-01-04T22:14:11.910Z,1.27
2023-01-04T22:19:14.186Z,1.05
2023-01-04T22:21:42.133Z,0.80
2023-01-04T22:24:13.743Z,2.45
2023-01-04T22:26:41.593Z,1.08
2023-01-04T22:29:27.377Z,1.10
2023-01-04T22:31:54.691Z,2.00
2023-01-04T22:34:22.214Z,1.10
2023-01-04T22:36:49.643Z,1.80
2023-01-04T22:39:17.030Z,1.20
2023-01-04T22:41:44.586Z,1.48
2023-01-04T22:44:12.031Z,1.45
2023-01-04T22:46:39.483Z,3.00
2023-01-04T22:49:07.850Z,1.42
2023-01-04T22:51:35.481Z,1.02
2023-01-04T22:54:05.964Z,1.38
2023-01-04T22:56:34.416Z,1.77
2023-01-04T22:59:01.816Z,2.50
2023-01-04T23:01:33.553Z,2.92
2023-01-04T23:04:07.353Z,1.90
2023-01-04T23:06:34.494Z,1.42
2023-01-04T23:09:08.117Z,1.20
2023-01-04T23:14:05.831Z,2.13
2023-01-04T23:16:33.728Z,1.85
2023-01-04T23:19:02.436Z,1.52
2023-01-04T23:21:30.166Z,1.98
2023-01-04T23:23:59.146Z,1.20
2023-01-04T23:26:30.413Z,1.35
2023-01-04T23:28:58.554Z,1.30
2023-01-04T23:31:29.649Z,1.45
2023-01-04T23:33:59.506Z,2.15
2023-01-04T23:36:30.084Z,2.55
2023-01-04T23:39:00.080Z,1.42
2023-01-04T23:41:47.129Z,1.50
2023-01-04T23:44:18.101Z,1.95
2023-01-04T23:46:46.248Z,1.85
2023-01-04T23:49:14.023Z,3.05
2023-01-04T23:51:49.231Z,1.48
2023-01-04T23:54:18.261Z,1.30
2023-01-04T23:56:46.005Z,3.20
2023-01-04T23:59:13.553Z,1.40
